Date,TemperatureHighF,TemperatureAvgF,TemperatureLowF,DewpointHighF,DewpointAvgF,DewpointLowF,HumidityHigh,HumidityAvg,HumidityLow,PressureMaxIn,PressureMinIn,WindSpeedMaxMPH,WindSpeedAvgMPH,GustSpeedMaxMPH,PrecipitationSumIn
2014-1-1,0,-3,-6,-6,-7,-10,85,81,77,30.49,30.34,11,8,15,0.00
2014-1-2,-1,-7,-15,-6,-12,-19,86,80,70,30.57,30.45,7,3,14,0.00
2014-1-3,34,14,-8,30,10,-12,87,82,77,30.45,29.53,14,8,29,0.00
2014-1-4,36,14,-1,32,9,-6,92,82,73,30.26,29.53,18,11,28,0.00
2014-1-5,0,-7,-17,-6,-14,-24,79,72,63,30.50,30.26,17,12,25,0.00
2014-1-6,-8,-14,-20,-14,-20,-26,81,73,70,30.50,30.33,14,9,24,0.00
2014-1-7,16,2,-11,4,-5,-15,82,73,55,30.34,30.16,5,2,17,0.00
2014-1-8,13,4,-5,4,-1,-9,87,79,66,30.50,30.32,5,2,7,0.00
2014-1-9,27,14,4,19,10,0,95,83,71,30.43,29.92,9,6,13,0.00
2014-1-10,30,26,20,30,26,18,99,97,95,29.92,29.51,6,3,15,0.00
2014-1-11,31,24,16,28,22,14,97,94,89,29.76,29.51,11,5,14,0.00
2014-1-12,40,36,26,35,31,23,90,83,74,29.64,29.38,12,6,20,0.00
2014-1-13,38,32,25,32,26,21,90,79,59,29.73,29.47,12,6,20,0.00
2014-1-14,39,23,13,35,18,8,92,81,74,30.17,29.45,24,15,31,0.00
2014-1-15,36,18,5,29,11,2,89,76,54,30.19,29.58,14,7,26,0.00
2014-1-16,36,21,5,30,16,-1,92,80,71,29.96,29.52,20,14,31,0.00
2014-1-17,21,11,1,11,3,-3,86,71,43,30.12,29.77,16,7,27,0.00
2014-1-18,33,21,8,32,18,5,98,86,61,30.02,29.48,20,9,31,0.00
2014-1-19,50,32,17,36,26,15,94,81,52,29.88,29.53,16,8,31,0.01
2014-1-20,34,18,-8,31,16,-12,96,91,81,30.46,29.75,20,9,28,0.00
2014-1-21,11,-2,-16,6,-7,-20,86,79,74,30.51,30.08,11,4,17,0.00
2014-1-22,14,5,-9,11,0,-14,88,81,71,30.60,30.06,21,11,31,0.00
2014-1-23,7,-4,-12,-2,-9,-17,82,79,67,30.85,30.37,12,7,31,0.00
2014-1-24,37,24,7,35,6,-100,94,68,59,30.36,29.60,18,-116,23,0.01
2014-1-25,33,17,8,30,8,-2,90,69,47,30.01,29.40,20,10,27,0.00
2014-1-26,36,19,-4,33,14,-12,92,80,70,30.21,29.36,23,13,31,0.00
2014-1-27,-2,-8,-14,-8,-14,-18,84,75,68,30.54,30.21,16,7,29,0.00
2014-1-28,8,-4,-16,-2,-10,-20,84,76,61,30.51,30.25,12,5,18,0.00
2014-1-29,39,19,-5,16,5,-10,80,59,34,30.25,29.53,15,7,25,0.00
2014-1-30,34,16,-3,29,7,-100,98,76,48,30.10,29.30,19,-20,25,0.00
2014-1-31,16,5,-4,7,0,-7,86,79,63,30.22,30.02,6,2,25,0.00
2014-2-1,19,12,-3,16,8,-7,91,84,76,30.29,29.95,13,5,19,0.00
2014-2-2,18,2,-14,8,-3,-17,88,81,64,30.38,30.25,10,3,19,0.00
2014-2-3,22,10,-2,14,-3,-100,92,75,69,30.36,30.22,7,-91,9,0.00
2014-2-4,12,4,0,8,-16,-100,88,67,74,30.48,30.36,17,-155,21,0.00
2014-2-5,4,-2,-12,-2,-7,-16,85,79,70,30.64,30.48,17,10,23,0.00
2014-2-6,4,-5,-14,-3,-10,-18,84,80,72,30.62,30.41,12,6,20,0.00
2014-2-7,15,1,-14,7,-5,-18,85,78,64,30.40,30.20,11,5,15,0.00
2014-2-8,17,8,-3,10,-16,-100,90,66,75,30.25,30.06,6,-199,13,0.00
2014-2-9,5,-4,-14,-2,-9,-18,90,81,71,30.52,30.24,14,5,19,0.00
2014-2-10,2,-9,-20,-5,-14,-24,86,81,71,30.60,30.50,6,2,19,0.00
2014-2-11,16,3,-20,11,-2,-24,87,80,72,30.58,30.10,11,5,19,0.00
2014-2-12,24,16,14,19,1,-100,94,76,77,30.15,29.78,11,-114,20,0.00
2014-2-13,36,18,5,32,5,-100,94,76,73,29.78,29.55,20,-75,31,0.00
2014-2-14,11,6,-4,6,2,-7,89,84,76,30.13,29.70,14,7,31,0.00
2014-2-15,38,18,-4,33,15,-6,93,86,79,30.08,29.72,16,8,23,0.00
2014-2-16,20,16,10,17,13,7,92,87,81,30.21,29.89,13,7,16,0.00
2014-2-17,37,26,20,30,14,-100,96,79,73,29.93,29.73,16,-76,25,0.02
2014-2-18,41,31,25,33,14,-100,94,70,67,29.82,29.53,10,-108,20,0.00
2014-2-19,49,30,23,34,9,-100,97,67,52,29.84,29.59,10,-155,17,0.01
2014-2-20,35,30,16,32,29,14,99,95,85,29.60,29.36,21,8,27,0.11
2014-2-21,27,16,8,19,6,-100,92,76,65,29.88,29.52,20,-46,26,0.00
2014-2-22,21,12,5,13,-5,-100,89,69,68,30.22,29.89,9,-115,18,0.00
2014-2-23,19,9,-1,12,4,-5,90,81,68,30.39,30.22,11,4,15,0.00
2014-2-24,21,9,3,9,4,0,90,80,55,30.43,30.31,7,3,12,0.00
2014-2-25,9,0,-10,3,-4,-14,88,81,68,30.50,30.37,14,7,20,0.00
2014-2-26,21,4,-11,13,-1,-15,85,79,67,30.48,29.84,20,10,25,0.00
2014-2-27,8,-4,-13,-5,-12,-20,77,66,45,30.25,30.05,15,5,25,0.00
2014-2-28,21,10,-7,17,5,-13,93,81,68,30.22,29.88,17,8,21,0.00
2014-3-1,6,-3,-8,2,-7,-13,84,80,76,30.61,30.22,18,13,24,0.00
2014-3-2,-2,-9,-15,-9,-15,-20,82,74,66,30.70,30.60,11,5,19,0.00
2014-3-3,10,0,-17,7,-5,-21,89,78,63,30.65,30.23,8,4,12,0.00
2014-3-4,8,1,6,3,-83,-100,80,13,78,30.25,30.09,5,-833,8,0.00
2014-3-5,25,14,12,18,-8,-100,92,69,72,30.40,30.24,8,-192,10,0.00
2014-3-6,31,22,12,28,7,-100,96,79,87,30.33,29.78,15,-123,18,0.00
2014-3-7,33,25,18,32,22,-100,97,89,83,30.19,29.72,21,-2,26,0.00
2014-3-8,26,17,7,20,14,5,93,85,75,30.37,30.19,11,5,24,0.00
2014-3-9,50,35,17,42,26,-100,90,76,67,30.23,29.70,14,-26,18,0.00
2014-3-10,57,39,36,48,20,-100,96,69,67,29.70,29.60,7,-147,16,0.00
2014-3-11,42,36,29,40,34,25,99,92,85,30.01,29.58,17,10,22,0.09
2014-3-12,32,27,24,28,23,18,91,83,75,30.13,30.00,16,6,23,0.00
2014-3-13,60,42,28,44,32,-100,95,73,43,30.03,29.53,14,-7,18,0.00
2014-3-14,46,38,30,38,33,28,95,81,60,29.92,29.52,15,7,21,0.00
2014-3-15,32,29,24,30,25,19,93,85,74,30.34,29.90,14,6,21,0.00
2014-3-16,33,24,16,21,15,9,85,69,38,30.43,30.01,9,4,15,0.00
2014-3-17,50,35,25,34,26,19,84,71,49,30.02,29.42,12,7,22,0.00
2014-3-18,44,35,29,34,31,28,98,85,65,29.74,29.42,15,7,21,0.00
2014-3-19,43,28,27,34,4,-100,98,67,65,29.98,29.74,14,-188,21,0.01
2014-3-20,49,36,23,36,31,22,99,83,55,29.99,29.80,8,3,15,0.00
2014-3-21,50,33,22,40,18,-100,86,72,65,30.18,29.69,18,-80,29,0.00
2014-3-22,26,19,12,16,11,7,83,71,53,30.53,30.17,15,11,24,0.00
2014-3-23,34,20,8,20,12,5,90,71,44,30.55,30.33,7,2,21,0.00
2014-3-24,36,27,21,28,22,17,94,81,59,30.35,30.16,13,5,16,0.00
2014-3-25,30,21,12,17,12,5,87,69,45,30.35,30.16,14,7,18,0.00
2014-3-26,56,37,17,40,24,12,88,63,41,30.16,29.49,16,10,27,0.00
2014-3-27,44,37,31,40,36,29,99,97,85,29.73,29.31,18,8,32,0.20
2014-3-28,32,29,26,29,26,24,93,89,81,30.25,29.73,13,6,21,0.00
2014-3-29,48,34,19,36,27,17,97,78,53,30.29,29.98,10,4,12,0.00
2014-3-30,67,50,36,42,37,31,84,64,36,29.97,29.61,14,7,26,0.00
2014-3-31,74,45,20,49,36,15,90,73,31,29.61,29.22,26,14,31,0.01
2014-4-1,44,29,17,28,21,13,90,73,52,30.11,29.60,19,10,32,0.00
2014-4-2,43,33,23,35,28,21,95,84,63,30.13,29.91,8,4,20,0.06
2014-4-3,35,32,29,34,29,-100,100,95,94,29.93,29.67,14,-18,15,0.12
2014-4-4,37,31,25,31,28,24,99,91,76,30.10,29.67,17,10,24,0.02
2014-4-5,53,38,23,40,31,23,98,80,55,30.11,29.90,9,5,24,0.01
2014-4-6,64,49,36,47,39,32,85,70,48,29.91,29.74,15,8,24,0.00
2014-4-7,61,48,36,46,38,-100,95,73,44,29.82,29.70,17,-6,24,0.00
2014-4-8,52,41,33,36,33,28,95,75,40,30.00,29.81,14,7,20,0.00
2014-4-9,75,49,32,40,18,-100,86,42,25,29.97,29.47,20,-109,27,0.00
2014-4-10,64,52,38,44,33,24,89,52,23,29.90,29.47,14,6,27,0.00
2014-4-11,72,56,38,43,35,28,81,49,23,29.91,29.75,13,5,18,0.00
2014-4-12,79,60,48,56,48,40,94,68,40,29.75,29.45,13,7,17,0.06
2014-4-13,48,38,29,46,37,27,99,95,89,29.88,29.58,21,15,29,0.03
2014-4-14,36,28,20,27,20,16,93,73,47,30.15,29.87,19,12,27,0.00
2014-4-15,42,29,14,31,20,11,92,71,43,30.20,29.88,10,4,20,0.00
2014-4-16,56,40,29,38,26,-100,96,70,42,29.96,29.63,18,-42,23,0.06
2014-4-17,46,34,24,33,25,-100,94,77,55,30.28,29.96,15,-18,25,0.00
2014-4-18,60,44,31,39,29,-100,95,65,42,30.29,30.01,12,-38,16,0.00
2014-4-19,76,58,45,52,40,-100,80,57,42,30.02,29.88,18,-35,28,0.00
2014-4-20,77,63,51,61,54,49,92,75,51,29.92,29.75,9,2,23,0.07
2014-4-21,70,60,43,58,46,33,98,64,29,30.03,29.80,17,9,25,0.06
2014-4-22,66,50,30,43,36,28,93,62,33,30.09,29.93,8,3,24,0.00
2014-4-23,53,48,44,42,39,34,92,73,58,29.96,29.68,17,10,21,0.03
2014-4-24,57,47,39,49,44,38,96,87,64,29.72,29.58,13,6,20,0.34
2014-4-25,73,54,35,46,37,-100,98,60,24,29.78,29.70,7,-9,12,0.01
2014-4-26,63,49,42,45,27,-100,91,57,47,29.79,29.58,12,-101,19,0.00
2014-4-27,54,46,42,53,40,-100,98,86,66,29.62,29.21,15,-19,20,0.40
2014-4-28,53,41,43,52,27,-100,99,85,93,29.44,29.29,12,-126,17,0.26
2014-4-29,43,39,36,43,38,35,99,97,93,29.76,29.43,17,12,23,0.28
2014-4-30,41,39,36,40,37,35,97,95,91,29.80,29.73,13,10,22,0.14
2014-5-1,44,41,38,41,39,37,98,93,85,29.87,29.74,14,9,26,0.06
2014-5-2,65,48,32,47,38,32,97,71,38,29.86,29.62,16,7,26,0.00
2014-5-3,67,50,33,42,32,-100,93,57,30,29.90,29.73,13,-27,26,0.00
2014-5-4,54,42,36,40,26,-100,91,66,54,30.02,29.83,12,-80,20,0.01
2014-5-5,67,52,42,44,33,-100,81,57,38,29.89,29.78,7,-46,14,0.00
2014-5-6,68,55,45,48,37,-100,78,57,46,29.81,29.57,13,-34,17,0.00
2014-5-7,87,67,52,64,53,43,84,63,38,29.58,29.37,11,5,16,0.00
2014-5-8,78,63,51,70,57,47,99,82,56,29.61,29.38,17,7,20,0.19
2014-5-9,66,51,46,47,32,-100,93,59,31,29.75,29.53,15,-55,22,0.00
2014-5-10,67,54,43,57,45,-100,95,76,61,29.76,29.58,13,-23,19,0.05
2014-5-11,68,57,41,63,54,40,99,90,69,29.84,29.52,10,3,16,0.52
2014-5-12,60,42,45,59,24,-100,100,81,92,29.88,29.57,14,-164,22,0.36
2014-5-13,57,48,38,43,39,35,93,74,47,30.21,29.87,15,10,23,0.00
2014-5-14,65,49,34,42,34,30,95,62,31,30.22,30.04,15,6,22,0.00
2014-5-15,49,41,33,36,28,-100,86,65,49,30.15,30.07,15,-17,21,0.00
2014-5-16,56,42,28,36,20,-100,94,54,32,30.09,30.01,8,-58,21,0.00
2014-5-17,68,52,34,36,32,27,83,50,27,30.08,29.97,11,5,16,0.00
2014-5-18,71,57,41,46,36,-100,72,48,30,30.04,29.85,11,-17,19,0.00
2014-5-19,65,60,53,61,54,46,99,82,60,29.88,29.60,14,6,19,0.33
2014-5-20,87,68,52,64,56,48,100,71,27,29.77,29.64,9,2,12,0.01
2014-5-21,73,59,51,54,38,-100,91,56,40,30.04,29.77,13,-64,20,0.00
2014-5-22,78,59,49,50,34,-100,88,49,25,30.13,30.02,9,-64,20,0.00
2014-5-23,83,68,54,53,47,43,71,49,27,30.13,29.97,4,2,6,0.00
2014-5-24,81,70,59,54,49,44,69,50,30,30.04,29.88,9,4,14,0.00
2014-5-25,79,69,59,67,61,53,87,77,66,29.93,29.76,10,4,12,0.00
2014-5-26,80,69,62,69,64,60,100,87,58,29.84,29.74,14,4,18,0.45
2014-5-27,82,70,61,68,64,61,100,83,56,29.86,29.78,11,3,13,0.01
2014-5-28,81,69,61,68,62,46,100,79,47,29.94,29.84,7,3,10,0.00
2014-5-29,86,73,54,66,58,46,78,61,46,29.98,29.85,5,2,10,0.00
2014-5-30,85,76,66,70,66,63,91,72,52,29.96,29.85,10,4,14,0.00
2014-5-31,86,76,68,71,67,64,92,75,51,29.93,29.74,14,5,19,0.29
2014-6-1,76,68,63,71,66,62,99,94,83,29.78,29.59,14,3,21,1.67
2014-6-2,78,69,61,68,61,56,100,78,49,29.84,29.61,17,10,24,0.00
2014-6-3,74,63,52,62,58,52,99,85,59,29.91,29.56,11,2,24,0.49
2014-6-4,82,69,61,67,62,59,97,80,55,29.79,29.57,9,4,14,0.00
2014-6-5,75,66,60,64,61,58,96,84,67,29.83,29.73,10,4,13,0.00
2014-6-6,87,73,60,70,62,57,100,74,38,29.84,29.75,7,2,11,0.00
2014-6-7,71,62,54,64,57,52,94,85,72,29.97,29.75,16,8,22,0.00
2014-6-8,76,63,47,54,49,43,99,65,33,30.05,29.91,9,4,21,0.00
2014-6-9,69,63,59,60,56,50,89,78,66,29.92,29.83,14,6,18,0.00
2014-6-10,80,69,56,64,59,53,90,72,50,29.85,29.72,5,3,18,0.00
2014-6-11,83,72,58,62,57,54,89,62,39,29.77,29.58,9,3,13,0.00
2014-6-12,73,63,48,60,49,40,88,63,33,29.95,29.63,15,10,21,0.01
2014-6-13,77,61,43,50,38,-100,87,50,28,30.00,29.77,8,-39,18,0.00
2014-6-14,72,64,58,66,58,48,99,80,56,29.81,29.48,10,7,17,1.43
2014-6-15,76,68,61,64,61,55,100,81,51,29.77,29.35,15,7,21,1.02
2014-6-16,77,66,60,72,63,57,100,89,72,29.82,29.45,30,6,35,2.78
2014-6-17,80,70,61,74,67,61,100,91,78,29.79,29.52,15,4,21,0.28
2014-6-18,83,74,63,78,71,62,100,92,80,29.84,29.57,26,5,29,1.20
2014-6-19,77,72,67,74,71,67,100,95,85,29.84,29.61,10,4,13,1.03
2014-6-20,84,73,61,70,66,56,100,80,41,29.87,29.73,8,2,11,0.05
2014-6-21,89,76,65,74,68,63,96,77,53,29.81,29.70,8,3,11,0.00
2014-6-22,78,71,63,70,67,63,100,88,67,29.76,29.67,15,3,21,0.79
2014-6-23,79,71,62,68,64,61,99,79,56,29.81,29.72,7,3,11,0.01
2014-6-24,84,72,59,66,61,55,97,72,38,29.86,29.80,8,3,11,0.00
2014-6-25,86,72,59,68,63,58,98,75,50,29.92,29.84,6,1,10,0.00
2014-6-26,82,74,66,73,68,64,97,84,69,29.88,29.69,12,4,15,0.00
2014-6-27,80,72,67,73,69,65,97,88,70,29.74,29.55,16,6,20,0.00
2014-6-28,82,74,62,75,68,58,97,81,57,29.64,29.52,14,7,25,0.08
2014-6-29,82,73,61,72,68,59,98,82,61,29.78,29.61,14,4,17,0.45
2014-6-30,75,67,64,69,64,56,97,89,65,29.68,29.44,11,3,17,0.30
2014-7-1,71,64,55,62,57,51,91,80,64,29.82,29.55,18,10,24,0.00
2014-7-2,73,62,53,55,52,49,94,71,45,30.03,29.82,14,7,24,0.00
2014-7-3,82,66,48,58,52,47,97,64,37,30.12,30.04,6,2,22,0.00
2014-7-4,79,70,62,66,61,54,91,71,59,30.15,29.97,11,7,17,0.71
2014-7-5,82,71,64,73,67,62,98,86,73,30.00,29.78,10,6,17,0.01
2014-7-6,90,77,67,80,71,64,100,83,45,29.79,29.63,9,4,14,0.00
2014-7-7,82,73,62,73,67,62,99,83,62,29.71,29.57,11,4,14,0.00
2014-7-8,79,68,58,62,59,55,95,73,51,29.86,29.62,12,7,19,0.00
2014-7-9,80,66,51,69,59,50,100,81,47,29.94,29.86,6,2,19,0.37
2014-7-10,82,72,61,68,65,60,100,79,57,29.95,29.84,11,4,17,0.00
2014-7-11,80,73,66,73,68,63,97,84,73,29.91,29.82,11,6,17,0.02
2014-7-12,78,70,66,73,69,65,100,96,82,29.94,29.83,6,2,16,0.73
2014-7-13,81,71,62,69,65,59,100,82,54,29.91,29.80,8,3,11,0.01
2014-7-14,68,60,52,59,52,48,97,76,53,30.00,29.83,14,6,22,0.00
2014-7-15,70,59,49,56,52,48,98,78,54,30.06,29.96,10,4,22,0.00
2014-7-16,76,62,47,60,53,46,99,74,45,30.01,29.92,3,1,17,0.01
2014-7-17,79,66,50,61,56,48,98,73,44,29.97,29.91,5,1,7,0.00
2014-7-18,76,67,59,65,61,56,94,80,61,29.94,29.85,7,3,15,0.00
2014-7-19,79,70,61,68,64,59,94,81,66,29.87,29.78,9,4,18,0.00
2014-7-20,84,74,65,73,68,62,94,82,67,29.79,29.69,9,5,18,0.00
2014-7-21,86,77,68,78,73,67,97,88,77,29.75,29.67,7,4,15,0.00
2014-7-22,82,76,63,78,69,59,100,82,64,30.05,29.68,16,5,22,0.00
2014-7-23,84,70,57,67,61,56,95,75,46,30.15,30.04,6,2,12,0.00
2014-7-24,77,66,56,65,61,55,97,86,64,30.06,29.75,15,3,18,0.31
2014-7-25,80,71,64,72,67,62,98,87,74,29.83,29.65,14,5,23,0.82
2014-7-26,81,73,66,75,70,64,100,89,69,29.81,29.64,8,2,14,0.00
2014-7-27,71,64,58,66,60,57,98,85,71,30.05,29.77,12,6,19,0.01
2014-7-28,75,63,53,65,59,53,100,87,62,30.14,30.04,6,3,19,0.00
2014-7-29,75,63,49,63,57,49,99,83,56,30.10,29.98,5,2,9,0.00
2014-7-30,78,65,51,66,59,50,99,82,55,30.04,29.97,5,1,10,0.00
2014-7-31,84,67,54,66,60,53,99,80,48,29.99,29.90,9,2,13,0.20
2014-8-1,86,70,56,70,62,55,99,79,45,29.99,29.94,3,1,6,0.01
2014-8-2,85,71,58,70,64,57,100,80,50,30.04,29.95,4,1,7,0.00
2014-8-3,89,75,61,72,67,59,98,77,51,30.00,29.91,2,0,5,0.00
2014-8-4,87,73,64,74,68,63,99,85,57,29.96,29.88,6,1,10,0.00
2014-8-5,74,74,74,67,66,65,78,76,74,29.98,29.95,2,1,4,0.00